sensor_id;sensor_type;location;lat;lon;timestamp;P1;durP1;ratioP1;P2;durP2;ratioP2
18298;SDS011;9275;48.690;9.686;2024-01-30T00:03:35;9.93;;;3.23;;
18298;SDS011;9275;48.690;9.686;2024-01-30T00:08:40;9.77;;;3.00;;
18298;SDS011;9275;48.690;9.686;2024-01-30T00:13:44;10.73;;;3.10;;
18298;SDS011;9275;48.690;9.686;2024-01-30T00:18:51;10.90;;;3.20;;
18298;SDS011;9275;48.690;9.686;2024-01-30T00:23:56;10.33;;;2.90;;
18298;SDS011;9275;48.690;9.686;2024-01-30T00:29:00;9.77;;;2.93;;
18298;SDS011;9275;48.690;9.686;2024-01-30T00:34:06;7.60;;;2.60;;
18298;SDS011;9275;48.690;9.686;2024-01-30T00:39:11;8.63;;;2.70;;
18298;SDS011;9275;48.690;9.686;2024-01-30T00:44:18;8.53;;;2.37;;
18298;SDS011;9275;48.690;9.686;2024-01-30T00:49:24;7.30;;;2.60;;
18298;SDS011;9275;48.690;9.686;2024-01-30T00:54:29;7.77;;;2.27;;
18298;SDS011;9275;48.690;9.686;2024-01-30T00:59:33;9.83;;;2.77;;
18298;SDS011;9275;48.690;9.686;2024-01-30T01:04:39;7.63;;;2.00;;
18298;SDS011;9275;48.690;9.686;2024-01-30T01:09:44;7.83;;;2.70;;
18298;SDS011;9275;48.690;9.686;2024-01-30T01:14:49;6.77;;;2.40;;
18298;SDS011;9275;48.690;9.686;2024-01-30T01:19:55;6.10;;;2.47;;
18298;SDS011;9275;48.690;9.686;2024-01-30T01:25:00;9.53;;;2.70;;
18298;SDS011;9275;48.690;9.686;2024-01-30T01:30:05;5.20;;;2.20;;
18298;SDS011;9275;48.690;9.686;2024-01-30T01:35:13;9.13;;;2.40;;
18298;SDS011;9275;48.690;9.686;2024-01-30T01:40:18;10.00;;;2.33;;
18298;SDS011;9275;48.690;9.686;2024-01-30T01:45:22;4.93;;;1.93;;
18298;SDS011;9275;48.690;9.686;2024-01-30T01:50:28;5.60;;;2.20;;
18298;SDS011;9275;48.690;9.686;2024-01-30T01:55:33;7.80;;;2.50;;
18298;SDS011;9275;48.690;9.686;2024-01-30T02:00:39;6.77;;;2.37;;
18298;SDS011;9275;48.690;9.686;2024-01-30T02:05:45;7.03;;;2.20;;
18298;SDS011;9275;48.690;9.686;2024-01-30T02:10:50;7.47;;;1.90;;
18298;SDS011;9275;48.690;9.686;2024-01-30T02:15:55;9.17;;;2.40;;
18298;SDS011;9275;48.690;9.686;2024-01-30T02:26:12;9.07;;;2.23;;
18298;SDS011;9275;48.690;9.686;2024-01-30T02:31:16;10.60;;;2.13;;
18298;SDS011;9275;48.690;9.686;2024-01-30T02:36:22;8.63;;;2.33;;
18298;SDS011;9275;48.690;9.686;2024-01-30T02:41:27;8.83;;;2.13;;
18298;SDS011;9275;48.690;9.686;2024-01-30T02:46:31;8.57;;;2.33;;
18298;SDS011;9275;48.690;9.686;2024-01-30T02:51:37;11.07;;;2.40;;
18298;SDS011;9275;48.690;9.686;2024-01-30T02:56:42;11.87;;;2.73;;
18298;SDS011;9275;48.690;9.686;2024-01-30T03:01:47;8.50;;;2.37;;
18298;SDS011;9275;48.690;9.686;2024-01-30T03:06:53;6.53;;;2.10;;
18298;SDS011;9275;48.690;9.686;2024-01-30T03:11:58;8.43;;;2.40;;
18298;SDS011;9275;48.690;9.686;2024-01-30T03:17:03;6.80;;;2.20;;
18298;SDS011;9275;48.690;9.686;2024-01-30T03:22:09;6.03;;;1.73;;
18298;SDS011;9275;48.690;9.686;2024-01-30T03:27:14;7.23;;;2.20;;
18298;SDS011;9275;48.690;9.686;2024-01-30T03:32:18;8.63;;;2.43;;
18298;SDS011;9275;48.690;9.686;2024-01-30T03:37:24;6.93;;;1.90;;
18298;SDS011;9275;48.690;9.686;2024-01-30T03:42:29;7.47;;;2.00;;
18298;SDS011;9275;48.690;9.686;2024-01-30T03:47:33;6.33;;;1.90;;
18298;SDS011;9275;48.690;9.686;2024-01-30T03:52:40;6.53;;;1.80;;
18298;SDS011;9275;48.690;9.686;2024-01-30T03:57:44;10.10;;;2.00;;
18298;SDS011;9275;48.690;9.686;2024-01-30T04:02:49;9.37;;;1.97;;
18298;SDS011;9275;48.690;9.686;2024-01-30T04:07:55;5.90;;;2.07;;
18298;SDS011;9275;48.690;9.686;2024-01-30T04:13:00;7.93;;;2.17;;
18298;SDS011;9275;48.690;9.686;2024-01-30T04:18:05;7.70;;;2.30;;
18298;SDS011;9275;48.690;9.686;2024-01-30T04:23:11;7.83;;;2.00;;
18298;SDS011;9275;48.690;9.686;2024-01-30T04:28:15;5.83;;;2.10;;
18298;SDS011;9275;48.690;9.686;2024-01-30T04:33:20;11.03;;;2.40;;
18298;SDS011;9275;48.690;9.686;2024-01-30T04:38:26;6.63;;;1.90;;
18298;SDS011;9275;48.690;9.686;2024-01-30T04:43:31;5.60;;;2.00;;
18298;SDS011;9275;48.690;9.686;2024-01-30T04:48:35;7.67;;;2.07;;
18298;SDS011;9275;48.690;9.686;2024-01-30T04:53:42;6.67;;;2.30;;
18298;SDS011;9275;48.690;9.686;2024-01-30T04:58:47;6.93;;;1.90;;
18298;SDS011;9275;48.690;9.686;2024-01-30T05:03:51;5.47;;;2.00;;
18298;SDS011;9275;48.690;9.686;2024-01-30T05:08:57;10.40;;;1.93;;
18298;SDS011;9275;48.690;9.686;2024-01-30T05:14:02;6.27;;;1.73;;
18298;SDS011;9275;48.690;9.686;2024-01-30T05:19:06;5.27;;;1.93;;
18298;SDS011;9275;48.690;9.686;2024-01-30T05:24:13;10.63;;;2.20;;
18298;SDS011;9275;48.690;9.686;2024-01-30T05:29:17;8.13;;;1.90;;
18298;SDS011;9275;48.690;9.686;2024-01-30T05:34:22;9.90;;;2.27;;
18298;SDS011;9275;48.690;9.686;2024-01-30T05:39:28;4.67;;;1.90;;
18298;SDS011;9275;48.690;9.686;2024-01-30T05:44:35;7.80;;;2.00;;
18298;SDS011;9275;48.690;9.686;2024-01-30T05:49:39;6.53;;;1.87;;
18298;SDS011;9275;48.690;9.686;2024-01-30T05:54:45;7.10;;;1.80;;
18298;SDS011;9275;48.690;9.686;2024-01-30T05:59:50;7.63;;;2.00;;
18298;SDS011;9275;48.690;9.686;2024-01-30T06:04:55;9.23;;;2.00;;
18298;SDS011;9275;48.690;9.686;2024-01-30T06:10:01;9.43;;;1.77;;
18298;SDS011;9275;48.690;9.686;2024-01-30T06:15:06;6.83;;;1.60;;
18298;SDS011;9275;48.690;9.686;2024-01-30T06:20:12;6.83;;;2.00;;
18298;SDS011;9275;48.690;9.686;2024-01-30T06:25:18;7.60;;;2.00;;
18298;SDS011;9275;48.690;9.686;2024-01-30T06:30:23;5.67;;;1.90;;
18298;SDS011;9275;48.690;9.686;2024-01-30T06:35:27;5.23;;;1.67;;
18298;SDS011;9275;48.690;9.686;2024-01-30T06:40:33;5.97;;;1.83;;
18298;SDS011;9275;48.690;9.686;2024-01-30T06:45:38;10.87;;;2.37;;
18298;SDS011;9275;48.690;9.686;2024-01-30T06:50:43;6.37;;;1.80;;
18298;SDS011;9275;48.690;9.686;2024-01-30T06:55:51;9.87;;;2.47;;
18298;SDS011;9275;48.690;9.686;2024-01-30T07:00:56;7.50;;;1.80;;
18298;SDS011;9275;48.690;9.686;2024-01-30T07:06:01;5.07;;;2.00;;
18298;SDS011;9275;48.690;9.686;2024-01-30T07:11:07;8.57;;;2.00;;
18298;SDS011;9275;48.690;9.686;2024-01-30T07:16:12;4.43;;;1.70;;
18298;SDS011;9275;48.690;9.686;2024-01-30T07:21:16;6.23;;;1.90;;
18298;SDS011;9275;48.690;9.686;2024-01-30T07:26:23;5.97;;;1.77;;
18298;SDS011;9275;48.690;9.686;2024-01-30T07:31:27;11.70;;;1.90;;
18298;SDS011;9275;48.690;9.686;2024-01-30T07:36:35;9.10;;;1.90;;
18298;SDS011;9275;48.690;9.686;2024-01-30T07:41:42;16.00;;;2.30;;
18298;SDS011;9275;48.690;9.686;2024-01-30T07:46:46;13.13;;;2.20;;
18298;SDS011;9275;48.690;9.686;2024-01-30T07:51:51;8.07;;;2.10;;
18298;SDS011;9275;48.690;9.686;2024-01-30T07:56:57;9.07;;;2.07;;
18298;SDS011;9275;48.690;9.686;2024-01-30T08:02:02;6.70;;;1.83;;
18298;SDS011;9275;48.690;9.686;2024-01-30T08:07:07;6.20;;;1.80;;
18298;SDS011;9275;48.690;9.686;2024-01-30T08:12:13;9.53;;;2.20;;
18298;SDS011;9275;48.690;9.686;2024-01-30T08:17:17;4.33;;;1.90;;
18298;SDS011;9275;48.690;9.686;2024-01-30T08:22:22;9.07;;;2.33;;
18298;SDS011;9275;48.690;9.686;2024-01-30T08:27:28;5.83;;;2.00;;
18298;SDS011;9275;48.690;9.686;2024-01-30T08:32:32;6.27;;;2.17;;
18298;SDS011;9275;48.690;9.686;2024-01-30T08:37:37;6.20;;;1.83;;
18298;SDS011;9275;48.690;9.686;2024-01-30T08:42:43;9.67;;;2.10;;
18298;SDS011;9275;48.690;9.686;2024-01-30T08:47:48;6.07;;;1.70;;
18298;SDS011;9275;48.690;9.686;2024-01-30T08:52:52;5.73;;;1.80;;
18298;SDS011;9275;48.690;9.686;2024-01-30T08:57:58;5.83;;;1.87;;
18298;SDS011;9275;48.690;9.686;2024-01-30T09:03:03;5.73;;;1.87;;
18298;SDS011;9275;48.690;9.686;2024-01-30T09:08:08;9.63;;;1.93;;
18298;SDS011;9275;48.690;9.686;2024-01-30T09:13:14;6.90;;;2.10;;
18298;SDS011;9275;48.690;9.686;2024-01-30T09:18:18;5.80;;;1.70;;
18298;SDS011;9275;48.690;9.686;2024-01-30T09:23:23;8.53;;;1.70;;
18298;SDS011;9275;48.690;9.686;2024-01-30T09:28:29;8.20;;;1.90;;
18298;SDS011;9275;48.690;9.686;2024-01-30T09:33:34;8.00;;;1.80;;
18298;SDS011;9275;48.690;9.686;2024-01-30T09:38:38;5.53;;;1.93;;
18298;SDS011;9275;48.690;9.686;2024-01-30T09:43:45;9.93;;;2.20;;
18298;SDS011;9275;48.690;9.686;2024-01-30T09:48:52;8.43;;;1.80;;
18298;SDS011;9275;48.690;9.686;2024-01-30T09:53:57;8.80;;;1.90;;
18298;SDS011;9275;48.690;9.686;2024-01-30T09:59:03;4.80;;;1.67;;
18298;SDS011;9275;48.690;9.686;2024-01-30T10:04:08;9.87;;;1.80;;
18298;SDS011;9275;48.690;9.686;2024-01-30T10:09:13;5.67;;;1.97;;
18298;SDS011;9275;48.690;9.686;2024-01-30T10:14:18;5.90;;;1.60;;
18298;SDS011;9275;48.690;9.686;2024-01-30T10:19:24;5.93;;;1.90;;
18298;SDS011;9275;48.690;9.686;2024-01-30T10:24:29;7.00;;;2.10;;
18298;SDS011;9275;48.690;9.686;2024-01-30T10:29:36;7.27;;;2.00;;
18298;SDS011;9275;48.690;9.686;2024-01-30T10:34:41;6.37;;;1.53;;
18298;SDS011;9275;48.690;9.686;2024-01-30T10:39:46;6.33;;;2.00;;
18298;SDS011;9275;48.690;9.686;2024-01-30T10:44:55;7.97;;;1.97;;
18298;SDS011;9275;48.690;9.686;2024-01-30T10:50:03;7.00;;;2.10;;
18298;SDS011;9275;48.690;9.686;2024-01-30T10:55:10;7.53;;;2.27;;
18298;SDS011;9275;48.690;9.686;2024-01-30T11:00:17;9.37;;;2.40;;
18298;SDS011;9275;48.690;9.686;2024-01-30T11:05:26;10.77;;;2.50;;
18298;SDS011;9275;48.690;9.686;2024-01-30T11:10:44;8.20;;;2.00;;
18298;SDS011;9275;48.690;9.686;2024-01-30T11:15:51;6.73;;;1.83;;
18298;SDS011;9275;48.690;9.686;2024-01-30T11:20:55;12.27;;;2.20;;
18298;SDS011;9275;48.690;9.686;2024-01-30T11:26:00;4.97;;;2.13;;
18298;SDS011;9275;48.690;9.686;2024-01-30T11:31:06;9.30;;;2.47;;
18298;SDS011;9275;48.690;9.686;2024-01-30T11:36:11;7.67;;;1.90;;
18298;SDS011;9275;48.690;9.686;2024-01-30T11:41:19;6.47;;;1.93;;
18298;SDS011;9275;48.690;9.686;2024-01-30T11:46:26;8.67;;;1.90;;
18298;SDS011;9275;48.690;9.686;2024-01-30T11:51:31;10.03;;;2.50;;
18298;SDS011;9275;48.690;9.686;2024-01-30T11:56:36;8.70;;;2.20;;
18298;SDS011;9275;48.690;9.686;2024-01-30T12:01:42;7.03;;;2.10;;
18298;SDS011;9275;48.690;9.686;2024-01-30T12:06:50;7.63;;;2.17;;
18298;SDS011;9275;48.690;9.686;2024-01-30T12:11:55;8.67;;;2.17;;
18298;SDS011;9275;48.690;9.686;2024-01-30T12:17:01;6.67;;;2.00;;
18298;SDS011;9275;48.690;9.686;2024-01-30T12:22:05;9.53;;;2.30;;
18298;SDS011;9275;48.690;9.686;2024-01-30T12:27:10;7.63;;;2.20;;
18298;SDS011;9275;48.690;9.686;2024-01-30T12:32:16;10.13;;;2.20;;
18298;SDS011;9275;48.690;9.686;2024-01-30T12:37:21;7.73;;;2.23;;
18298;SDS011;9275;48.690;9.686;2024-01-30T12:42:27;4.53;;;2.20;;
18298;SDS011;9275;48.690;9.686;2024-01-30T12:47:33;4.80;;;1.93;;
18298;SDS011;9275;48.690;9.686;2024-01-30T12:52:37;7.37;;;1.80;;
18298;SDS011;9275;48.690;9.686;2024-01-30T12:57:42;6.70;;;1.70;;
18298;SDS011;9275;48.690;9.686;2024-01-30T13:02:48;7.57;;;1.83;;
18298;SDS011;9275;48.690;9.686;2024-01-30T13:07:53;9.10;;;1.63;;
18298;SDS011;9275;48.690;9.686;2024-01-30T13:12:59;6.63;;;1.87;;
18298;SDS011;9275;48.690;9.686;2024-01-30T13:18:06;4.17;;;1.70;;
18298;SDS011;9275;48.690;9.686;2024-01-30T13:23:11;3.13;;;1.30;;
18298;SDS011;9275;48.690;9.686;2024-01-30T13:28:15;3.60;;;1.40;;
18298;SDS011;9275;48.690;9.686;2024-01-30T13:33:21;4.00;;;1.40;;
18298;SDS011;9275;48.690;9.686;2024-01-30T13:38:28;5.03;;;1.50;;
18298;SDS011;9275;48.690;9.686;2024-01-30T13:43:32;4.13;;;1.37;;
18298;SDS011;9275;48.690;9.686;2024-01-30T13:48:38;3.60;;;1.40;;
18298;SDS011;9275;48.690;9.686;2024-01-30T13:53:43;3.90;;;1.63;;
18298;SDS011;9275;48.690;9.686;2024-01-30T13:58:47;4.83;;;1.60;;
18298;SDS011;9275;48.690;9.686;2024-01-30T14:03:54;4.83;;;1.50;;
18298;SDS011;9275;48.690;9.686;2024-01-30T14:08:59;3.33;;;1.90;;
18298;SDS011;9275;48.690;9.686;2024-01-30T14:14:09;3.70;;;1.30;;
18298;SDS011;9275;48.690;9.686;2024-01-30T14:19:15;3.73;;;1.50;;
18298;SDS011;9275;48.690;9.686;2024-01-30T14:24:20;4.67;;;1.60;;
18298;SDS011;9275;48.690;9.686;2024-01-30T14:29:24;3.20;;;1.20;;
18298;SDS011;9275;48.690;9.686;2024-01-30T14:34:31;3.43;;;1.40;;
18298;SDS011;9275;48.690;9.686;2024-01-30T14:39:35;4.57;;;1.40;;
18298;SDS011;9275;48.690;9.686;2024-01-30T14:44:41;1.10;;;0.93;;
18298;SDS011;9275;48.690;9.686;2024-01-30T14:49:47;1.60;;;0.90;;
18298;SDS011;9275;48.690;9.686;2024-01-30T14:54:52;1.37;;;0.70;;
18298;SDS011;9275;48.690;9.686;2024-01-30T14:59:57;1.83;;;0.93;;
18298;SDS011;9275;48.690;9.686;2024-01-30T15:05:04;1.00;;;0.80;;
18298;SDS011;9275;48.690;9.686;2024-01-30T15:10:09;1.37;;;0.87;;
18298;SDS011;9275;48.690;9.686;2024-01-30T15:15:13;1.10;;;0.70;;
18298;SDS011;9275;48.690;9.686;2024-01-30T15:20:19;1.00;;;0.80;;
18298;SDS011;9275;48.690;9.686;2024-01-30T15:25:24;1.40;;;0.83;;
18298;SDS011;9275;48.690;9.686;2024-01-30T15:30:28;1.60;;;0.80;;
18298;SDS011;9275;48.690;9.686;2024-01-30T15:35:34;1.20;;;0.90;;
18298;SDS011;9275;48.690;9.686;2024-01-30T15:40:40;1.00;;;0.70;;
18298;SDS011;9275;48.690;9.686;2024-01-30T15:45:45;1.63;;;0.70;;
18298;SDS011;9275;48.690;9.686;2024-01-30T15:50:51;1.10;;;0.80;;
18298;SDS011;9275;48.690;9.686;2024-01-30T15:55:56;1.13;;;0.80;;
18298;SDS011;9275;48.690;9.686;2024-01-30T16:01:00;0.83;;;0.70;;
18298;SDS011;9275;48.690;9.686;2024-01-30T16:06:07;1.40;;;0.70;;
18298;SDS011;9275;48.690;9.686;2024-01-30T16:11:11;0.87;;;0.70;;
18298;SDS011;9275;48.690;9.686;2024-01-30T16:16:16;1.57;;;0.90;;
18298;SDS011;9275;48.690;9.686;2024-01-30T16:21:23;1.73;;;0.70;;
18298;SDS011;9275;48.690;9.686;2024-01-30T16:26:27;0.93;;;0.80;;
18298;SDS011;9275;48.690;9.686;2024-01-30T16:31:32;1.80;;;1.00;;
18298;SDS011;9275;48.690;9.686;2024-01-30T16:36:38;0.80;;;0.67;;
18298;SDS011;9275;48.690;9.686;2024-01-30T16:41:45;0.83;;;0.60;;
18298;SDS011;9275;48.690;9.686;2024-01-30T16:46:50;1.23;;;0.67;;
18298;SDS011;9275;48.690;9.686;2024-01-30T16:51:56;0.60;;;0.60;;
18298;SDS011;9275;48.690;9.686;2024-01-30T16:57:03;1.40;;;0.50;;
18298;SDS011;9275;48.690;9.686;2024-01-30T17:02:08;0.77;;;0.53;;
18298;SDS011;9275;48.690;9.686;2024-01-30T17:07:14;1.00;;;0.50;;
18298;SDS011;9275;48.690;9.686;2024-01-30T17:12:19;1.50;;;0.50;;
18298;SDS011;9275;48.690;9.686;2024-01-30T17:17:23;1.00;;;0.53;;
18298;SDS011;9275;48.690;9.686;2024-01-30T17:22:29;0.70;;;0.60;;
18298;SDS011;9275;48.690;9.686;2024-01-30T17:27:34;1.43;;;0.70;;
18298;SDS011;9275;48.690;9.686;2024-01-30T17:32:38;1.37;;;0.67;;
18298;SDS011;9275;48.690;9.686;2024-01-30T17:37:44;2.30;;;0.77;;
18298;SDS011;9275;48.690;9.686;2024-01-30T17:42:49;1.77;;;0.80;;
18298;SDS011;9275;48.690;9.686;2024-01-30T17:47:53;2.37;;;0.70;;
18298;SDS011;9275;48.690;9.686;2024-01-30T17:52:59;1.90;;;0.70;;
18298;SDS011;9275;48.690;9.686;2024-01-30T17:58:04;2.27;;;0.80;;
18298;SDS011;9275;48.690;9.686;2024-01-30T18:03:08;1.33;;;0.70;;
18298;SDS011;9275;48.690;9.686;2024-01-30T18:08:14;1.80;;;0.90;;
18298;SDS011;9275;48.690;9.686;2024-01-30T18:13:19;0.93;;;0.63;;
18298;SDS011;9275;48.690;9.686;2024-01-30T18:18:23;0.93;;;0.60;;
18298;SDS011;9275;48.690;9.686;2024-01-30T18:23:34;0.80;;;0.60;;
18298;SDS011;9275;48.690;9.686;2024-01-30T18:28:38;0.70;;;0.63;;
18298;SDS011;9275;48.690;9.686;2024-01-30T18:33:43;0.90;;;0.60;;
18298;SDS011;9275;48.690;9.686;2024-01-30T18:38:55;1.70;;;0.73;;
18298;SDS011;9275;48.690;9.686;2024-01-30T18:44:00;1.17;;;0.70;;
18298;SDS011;9275;48.690;9.686;2024-01-30T18:49:04;0.60;;;0.50;;
18298;SDS011;9275;48.690;9.686;2024-01-30T18:54:10;0.70;;;0.60;;
18298;SDS011;9275;48.690;9.686;2024-01-30T18:59:15;1.00;;;0.60;;
18298;SDS011;9275;48.690;9.686;2024-01-30T19:04:20;1.43;;;0.70;;
18298;SDS011;9275;48.690;9.686;2024-01-30T19:09:26;1.10;;;0.70;;
18298;SDS011;9275;48.690;9.686;2024-01-30T19:14:31;4.23;;;1.07;;
18298;SDS011;9275;48.690;9.686;2024-01-30T19:19:36;0.97;;;0.73;;
18298;SDS011;9275;48.690;9.686;2024-01-30T19:24:44;1.60;;;0.70;;
18298;SDS011;9275;48.690;9.686;2024-01-30T19:29:48;1.10;;;0.60;;
18298;SDS011;9275;48.690;9.686;2024-01-30T19:34:54;2.70;;;0.87;;
18298;SDS011;9275;48.690;9.686;2024-01-30T19:40:00;1.33;;;0.80;;
18298;SDS011;9275;48.690;9.686;2024-01-30T19:45:05;1.03;;;0.70;;
18298;SDS011;9275;48.690;9.686;2024-01-30T19:50:12;1.80;;;0.67;;
18298;SDS011;9275;48.690;9.686;2024-01-30T19:55:18;2.00;;;0.83;;
18298;SDS011;9275;48.690;9.686;2024-01-30T20:00:26;1.07;;;0.67;;
18298;SDS011;9275;48.690;9.686;2024-01-30T20:05:30;1.90;;;0.90;;
18298;SDS011;9275;48.690;9.686;2024-01-30T20:10:37;2.80;;;0.80;;
18298;SDS011;9275;48.690;9.686;2024-01-30T20:15:42;2.23;;;0.90;;
18298;SDS011;9275;48.690;9.686;2024-01-30T20:20:47;2.00;;;0.70;;
18298;SDS011;9275;48.690;9.686;2024-01-30T20:25:53;1.07;;;0.60;;
18298;SDS011;9275;48.690;9.686;2024-01-30T20:31:00;1.73;;;0.57;;
18298;SDS011;9275;48.690;9.686;2024-01-30T20:36:05;2.23;;;0.80;;
18298;SDS011;9275;48.690;9.686;2024-01-30T20:41:12;1.07;;;0.60;;
18298;SDS011;9275;48.690;9.686;2024-01-30T20:46:17;1.13;;;0.60;;
18298;SDS011;9275;48.690;9.686;2024-01-30T20:51:21;1.47;;;0.90;;
18298;SDS011;9275;48.690;9.686;2024-01-30T20:56:27;2.50;;;0.93;;
18298;SDS011;9275;48.690;9.686;2024-01-30T21:01:32;1.33;;;0.87;;
18298;SDS011;9275;48.690;9.686;2024-01-30T21:06:37;2.63;;;0.90;;
18298;SDS011;9275;48.690;9.686;2024-01-30T21:11:43;2.80;;;1.03;;
18298;SDS011;9275;48.690;9.686;2024-01-30T21:16:48;2.17;;;0.90;;
18298;SDS011;9275;48.690;9.686;2024-01-30T21:21:53;3.17;;;1.00;;
18298;SDS011;9275;48.690;9.686;2024-01-30T21:26:59;1.40;;;0.97;;
18298;SDS011;9275;48.690;9.686;2024-01-30T21:32:04;2.30;;;1.10;;
18298;SDS011;9275;48.690;9.686;2024-01-30T21:37:09;1.97;;;1.10;;
18298;SDS011;9275;48.690;9.686;2024-01-30T21:42:15;2.70;;;1.13;;
18298;SDS011;9275;48.690;9.686;2024-01-30T21:47:20;2.37;;;1.30;;
18298;SDS011;9275;48.690;9.686;2024-01-30T21:52:25;1.30;;;0.90;;
18298;SDS011;9275;48.690;9.686;2024-01-30T21:57:31;3.63;;;1.20;;
18298;SDS011;9275;48.690;9.686;2024-01-30T22:02:36;2.67;;;1.03;;
18298;SDS011;9275;48.690;9.686;2024-01-30T22:07:40;1.87;;;1.00;;
18298;SDS011;9275;48.690;9.686;2024-01-30T22:12:46;4.13;;;1.10;;
18298;SDS011;9275;48.690;9.686;2024-01-30T22:17:51;3.83;;;0.90;;
18298;SDS011;9275;48.690;9.686;2024-01-30T22:22:56;7.87;;;1.40;;
18298;SDS011;9275;48.690;9.686;2024-01-30T22:28:02;4.60;;;1.10;;
18298;SDS011;9275;48.690;9.686;2024-01-30T22:33:06;3.87;;;1.20;;
18298;SDS011;9275;48.690;9.686;2024-01-30T22:38:13;1.57;;;0.90;;
18298;SDS011;9275;48.690;9.686;2024-01-30T22:43:19;1.93;;;1.00;;
18298;SDS011;9275;48.690;9.686;2024-01-30T22:48:23;1.80;;;0.97;;
18298;SDS011;9275;48.690;9.686;2024-01-30T22:53:28;1.80;;;0.67;;
18298;SDS011;9275;48.690;9.686;2024-01-30T22:58:34;1.83;;;1.00;;
18298;SDS011;9275;48.690;9.686;2024-01-30T23:03:38;1.33;;;0.90;;
18298;SDS011;9275;48.690;9.686;2024-01-30T23:08:43;0.97;;;0.70;;
18298;SDS011;9275;48.690;9.686;2024-01-30T23:13:49;7.73;;;1.30;;
18298;SDS011;9275;48.690;9.686;2024-01-30T23:18:53;22.90;;;2.40;;
18298;SDS011;9275;48.690;9.686;2024-01-30T23:23:58;1.07;;;0.87;;
18298;SDS011;9275;48.690;9.686;2024-01-30T23:29:04;1.37;;;0.70;;
18298;SDS011;9275;48.690;9.686;2024-01-30T23:34:08;9.00;;;1.33;;
18298;SDS011;9275;48.690;9.686;2024-01-30T23:39:14;2.50;;;1.13;;
18298;SDS011;9275;48.690;9.686;2024-01-30T23:44:20;1.93;;;1.20;;
18298;SDS011;9275;48.690;9.686;2024-01-30T23:49:24;2.87;;;1.20;;
18298;SDS011;9275;48.690;9.686;2024-01-30T23:54:29;4.40;;;1.47;;
18298;SDS011;9275;48.690;9.686;2024-01-30T23:59:35;4.80;;;1.50;;
